createdAt,value
2019-06-01T00:00:42.300Z,86.76
2019-06-01T00:01:42.452Z,86.90
2019-06-01T00:02:45.365Z,87.06
2019-06-01T00:03:44.222Z,86.90
2019-06-01T00:04:42.968Z,86.86
2019-06-01T00:05:42.576Z,87.51
2019-06-01T00:06:42.813Z,87.41
2019-06-01T00:07:42.939Z,87.71
2019-06-01T00:08:43.102Z,87.71
2019-06-01T00:09:43.023Z,87.60
2019-06-01T00:10:42.980Z,87.60
2019-06-01T00:11:43.346Z,87.71
2019-06-01T00:12:43.266Z,87.30
2019-06-01T00:13:43.389Z,87.41
2019-06-01T00:14:42.160Z,87.51
2019-06-01T00:15:42.139Z,87.71
2019-06-01T00:16:42.148Z,87.41
2019-06-01T00:17:42.114Z,87.51
2019-06-01T00:18:42.110Z,87.41
2019-06-01T00:19:42.107Z,87.10
2019-06-01T00:20:42.277Z,87.41
2019-06-01T00:21:43.210Z,87.45
2019-06-01T00:22:43.248Z,87.60
2019-06-01T00:23:42.487Z,88.05
2019-06-01T00:24:42.045Z,87.65
2019-06-01T00:25:42.621Z,87.75
2019-06-01T00:26:42.022Z,88.05
2019-06-01T00:27:42.485Z,88.15
2019-06-01T00:28:42.006Z,87.65
2019-06-01T00:29:42.709Z,88.25
2019-06-01T00:30:41.992Z,88.05
2019-06-01T00:31:43.066Z,88.05
2019-06-01T00:32:42.985Z,88.15
2019-06-01T00:33:43.285Z,87.45
2019-06-01T00:34:41.939Z,87.55
2019-06-01T00:35:41.927Z,87.65
2019-06-01T00:36:41.920Z,88.05
2019-06-01T00:37:41.938Z,88.09
2019-06-01T00:38:41.890Z,87.99
2019-06-01T00:39:41.878Z,87.79
2019-06-01T00:40:41.867Z,87.69
2019-06-01T00:41:42.005Z,87.49
2019-06-01T00:42:42.051Z,87.79
2019-06-01T00:43:42.105Z,87.89
2019-06-01T00:44:42.095Z,87.79
2019-06-01T00:45:42.302Z,88.09
2019-06-01T00:46:42.541Z,87.99
2019-06-01T00:47:42.647Z,87.69
2019-06-01T00:48:41.788Z,87.89
2019-06-01T00:49:42.708Z,87.89
2019-06-01T00:50:43.045Z,88.09
2019-06-01T00:51:42.830Z,87.99
2019-06-01T00:52:42.875Z,87.69
2019-06-01T00:53:43.190Z,87.49
2019-06-01T00:54:41.737Z,87.89
2019-06-01T00:55:41.709Z,87.53
2019-06-01T00:56:41.704Z,88.19
2019-06-01T00:57:41.691Z,88.34
2019-06-01T00:58:41.680Z,87.73
2019-06-01T00:59:41.662Z,87.73
2019-06-01T01:00:44.152Z,88.19
2019-06-01T01:01:41.645Z,88.34
2019-06-01T01:02:41.635Z,88.13
2019-06-01T01:03:41.631Z,87.93
2019-06-01T01:04:41.633Z,88.13
2019-06-01T01:05:41.598Z,88.03
2019-06-01T01:06:41.590Z,88.03
2019-06-01T01:07:41.600Z,88.23
2019-06-01T01:08:41.570Z,88.54
2019-06-01T01:09:41.552Z,88.43
2019-06-01T01:10:41.545Z,88.84
2019-06-01T01:11:41.536Z,88.54
2019-06-01T01:12:41.541Z,88.74
2019-06-01T01:13:41.523Z,88.64
2019-06-01T01:14:41.502Z,88.74
2019-06-01T01:15:41.493Z,88.84
2019-06-01T01:16:41.476Z,88.84
2019-06-01T01:17:41.474Z,88.34
2019-06-01T01:18:41.496Z,88.64
2019-06-01T01:19:41.449Z,87.93
2019-06-01T01:20:41.442Z,88.13
2019-06-01T01:21:41.427Z,88.34
2019-06-01T01:22:41.411Z,88.03
2019-06-01T01:23:41.412Z,88.03
2019-06-01T01:24:41.408Z,87.93
2019-06-01T01:25:41.381Z,88.38
2019-06-01T01:26:41.373Z,87.83
2019-06-01T01:27:41.358Z,88.07
2019-06-01T01:28:41.353Z,88.38
2019-06-01T01:29:41.358Z,88.38
2019-06-01T01:30:41.329Z,88.48
2019-06-01T01:31:41.316Z,88.68
2019-06-01T01:32:41.307Z,88.68
2019-06-01T01:33:41.306Z,88.48
2019-06-01T01:34:41.357Z,88.58
2019-06-01T01:35:41.278Z,88.38
2019-06-01T01:36:41.257Z,88.38
2019-06-01T01:37:41.254Z,88.28
2019-06-01T01:38:41.238Z,88.07
2019-06-01T01:39:41.226Z,88.18
2019-06-01T01:40:41.223Z,88.07
2019-06-01T01:41:41.205Z,88.18
2019-06-01T01:42:41.193Z,87.98
2019-06-01T01:43:41.181Z,88.02
2019-06-01T01:44:41.171Z,88.02
2019-06-01T01:45:41.175Z,87.87
2019-06-01T01:46:41.158Z,87.92
2019-06-01T01:47:41.140Z,87.82
2019-06-01T01:48:41.129Z,87.82
2019-06-01T01:49:41.129Z,87.71
2019-06-01T01:50:41.120Z,87.92
2019-06-01T01:51:41.113Z,87.82
2019-06-01T01:52:41.084Z,87.82
2019-06-01T01:53:41.075Z,88.22
2019-06-01T01:54:41.067Z,88.02
2019-06-01T01:55:41.052Z,88.22
2019-06-01T01:56:48.092Z,88.02
2019-06-01T01:57:41.030Z,88.12
2019-06-01T01:58:41.020Z,88.22
2019-06-01T01:59:41.008Z,88.62
2019-06-01T02:00:40.996Z,88.36
2019-06-01T02:01:40.995Z,88.46
2019-06-01T02:02:40.978Z,88.36
2019-06-01T02:03:40.972Z,88.42
2019-06-01T02:04:40.964Z,88.36
2019-06-01T02:05:40.956Z,88.22
2019-06-01T02:06:40.948Z,87.96
2019-06-01T02:07:40.933Z,88.12
2019-06-01T02:08:40.918Z,88.12
2019-06-01T02:09:40.909Z,88.22
2019-06-01T02:10:40.893Z,87.96
2019-06-01T02:11:40.879Z,87.82
2019-06-01T02:12:40.908Z,88.22
2019-06-01T02:13:40.863Z,88.26
2019-06-01T02:14:40.849Z,87.71
2019-06-01T02:15:40.844Z,87.65
2019-06-01T02:16:40.829Z,88.06
2019-06-01T02:17:40.825Z,87.96
2019-06-01T02:18:40.813Z,87.65
2019-06-01T02:19:40.799Z,87.96
2019-06-01T02:20:40.790Z,87.85
2019-06-01T02:21:40.775Z,88.10
2019-06-01T02:22:40.811Z,88.30
2019-06-01T02:23:40.765Z,88.30
2019-06-01T02:24:40.744Z,88.30
2019-06-01T02:25:40.729Z,88.30
2019-06-01T02:26:40.719Z,88.40
2019-06-01T02:27:40.714Z,88.30
2019-06-01T02:28:40.711Z,88.20
2019-06-01T02:29:40.696Z,88.30
2019-06-01T02:30:40.679Z,87.90
2019-06-01T02:31:42.818Z,88.00
2019-06-01T02:32:40.659Z,87.90
2019-06-01T02:33:40.649Z,88.20
2019-06-01T02:34:40.640Z,88.00
2019-06-01T02:35:40.627Z,88.00
2019-06-01T02:36:40.616Z,87.90
2019-06-01T02:37:40.601Z,87.90
2019-06-01T02:38:40.594Z,88.30
2019-06-01T02:39:40.590Z,87.90
2019-06-01T02:40:40.574Z,88.10
2019-06-01T02:41:40.565Z,87.90
2019-06-01T02:42:40.546Z,88.00
2019-06-01T02:43:40.535Z,87.70
2019-06-01T02:44:40.562Z,87.60
2019-06-01T02:45:40.517Z,87.80
2019-06-01T02:46:40.509Z,87.90
2019-06-01T02:47:40.494Z,87.70
2019-06-01T02:48:40.485Z,88.00
2019-06-01T02:49:40.469Z,87.70
2019-06-01T02:50:40.474Z,87.90
2019-06-01T02:51:40.457Z,87.70
2019-06-01T02:52:40.439Z,87.80
2019-06-01T02:53:40.426Z,87.74
2019-06-01T02:54:40.420Z,87.70
2019-06-01T02:55:40.419Z,87.74
2019-06-01T02:56:40.401Z,87.84
2019-06-01T02:57:40.387Z,87.84
2019-06-01T02:58:40.372Z,87.70
2019-06-01T02:59:40.368Z,87.09
2019-06-01T03:00:40.385Z,87.43
2019-06-01T03:01:55.991Z,87.09
2019-06-01T03:02:41.329Z,87.54
2019-06-01T03:03:40.320Z,87.84
2019-06-01T03:04:40.315Z,87.74
2019-06-01T03:05:40.299Z,87.74
2019-06-01T03:06:40.295Z,87.63
2019-06-01T03:07:40.276Z,87.74
2019-06-01T03:08:40.267Z,87.84
2019-06-01T03:09:40.261Z,87.84
2019-06-01T03:10:40.249Z,87.63
2019-06-01T03:11:40.247Z,87.74
2019-06-01T03:12:40.233Z,87.74
2019-06-01T03:13:40.218Z,87.63
2019-06-01T03:14:40.216Z,87.43
2019-06-01T03:15:40.192Z,87.23
2019-06-01T03:16:40.606Z,87.43
2019-06-01T03:17:40.177Z,87.34
2019-06-01T03:18:40.164Z,87.13
2019-06-01T03:19:40.155Z,87.63
2019-06-01T03:20:40.144Z,87.54
2019-06-01T03:21:40.127Z,87.43
2019-06-01T03:22:40.116Z,86.73
2019-06-01T03:23:40.109Z,86.93
2019-06-01T03:24:40.104Z,87.34
2019-06-01T03:25:40.086Z,87.13
2019-06-01T03:26:40.072Z,87.54
2019-06-01T03:27:40.062Z,87.54
2019-06-01T03:28:40.051Z,87.54
2019-06-01T03:29:40.053Z,87.43
2019-06-01T03:30:44.766Z,87.34
2019-06-01T03:31:41.054Z,87.23
2019-06-01T03:32:40.010Z,86.93
2019-06-01T03:33:40.001Z,87.34
2019-06-01T03:34:39.993Z,87.03
2019-06-01T03:35:39.982Z,86.83
2019-06-01T03:36:39.980Z,86.73
2019-06-01T03:37:39.972Z,86.73
2019-06-01T03:38:39.949Z,86.33
2019-06-01T03:39:39.938Z,86.73
2019-06-01T03:40:39.931Z,86.33
2019-06-01T03:41:39.912Z,86.73
2019-06-01T03:42:39.906Z,86.93
2019-06-01T03:43:39.895Z,86.73
2019-06-01T03:44:39.885Z,86.83
2019-06-01T03:45:39.898Z,86.43
2019-06-01T03:46:39.860Z,86.83
2019-06-01T03:47:39.852Z,87.03
2019-06-01T03:48:39.838Z,86.73
2019-06-01T03:49:39.833Z,87.43
2019-06-01T03:50:39.815Z,87.54
2019-06-01T03:51:39.819Z,87.94
2019-06-01T03:52:39.797Z,87.78
2019-06-01T03:53:39.783Z,87.84
2019-06-01T03:54:39.776Z,87.94
2019-06-01T03:55:39.764Z,88.59
2019-06-01T03:56:39.786Z,88.18
2019-06-01T03:57:39.741Z,88.45
2019-06-01T03:58:39.726Z,88.34
2019-06-01T03:59:39.716Z,88.68
2019-06-01T04:00:39.706Z,89.09
2019-06-01T04:01:39.699Z,89.09
2019-06-01T04:02:39.713Z,89.29
2019-06-01T04:03:39.678Z,89.39
2019-06-01T04:04:39.668Z,89.29
2019-06-01T04:05:39.658Z,89.29
2019-06-01T04:06:39.646Z,89.39
2019-06-01T04:07:39.631Z,89.39
2019-06-01T04:08:39.628Z,89.59
2019-06-01T04:09:39.609Z,89.59
2019-06-01T04:10:39.598Z,89.59
2019-06-01T04:11:39.587Z,89.29
2019-06-01T04:12:39.583Z,88.89
2019-06-01T04:13:39.575Z,89.70
2019-06-01T04:14:39.557Z,90.00
2019-06-01T04:15:39.549Z,89.84
2019-06-01T04:16:39.539Z,90.55
2019-06-01T04:17:39.522Z,90.95
2019-06-01T04:18:39.524Z,90.95
2019-06-01T04:19:39.500Z,91.15
2019-06-01T04:20:39.561Z,90.85
2019-06-01T04:21:39.484Z,90.95
2019-06-01T04:22:39.473Z,91.15
2019-06-01T04:23:39.488Z,91.66
2019-06-01T04:24:39.446Z,91.76
2019-06-01T04:25:39.435Z,91.76
2019-06-01T04:26:39.430Z,92.36
2019-06-01T04:27:39.416Z,91.05
2019-06-01T04:28:39.403Z,90.75
2019-06-01T04:29:39.400Z,90.50
2019-06-01T04:30:39.383Z,90.91
2019-06-01T04:31:39.380Z,90.70
2019-06-01T04:32:49.332Z,90.66
2019-06-01T04:33:40.348Z,90.50
2019-06-01T04:34:39.350Z,90.41
2019-06-01T04:35:39.342Z,90.26
2019-06-01T04:36:39.322Z,90.56
2019-06-01T04:37:39.311Z,90.86
2019-06-01T04:38:39.294Z,90.56
2019-06-01T04:39:39.297Z,90.46
2019-06-01T04:40:39.276Z,90.36
2019-06-01T04:41:39.263Z,90.46
2019-06-01T04:42:39.257Z,89.75
2019-06-01T04:43:39.244Z,89.95
2019-06-01T04:44:39.277Z,90.62
2019-06-01T04:45:39.218Z,90.66
2019-06-01T04:46:39.206Z,90.06
2019-06-01T04:47:39.199Z,90.26
2019-06-01T04:48:39.188Z,89.95
2019-06-01T04:49:39.180Z,90.86
2019-06-01T04:50:39.210Z,90.62
2019-06-01T04:51:39.153Z,90.32
2019-06-01T04:52:39.147Z,89.91
2019-06-01T04:53:39.133Z,90.01
2019-06-01T04:54:39.126Z,89.81
2019-06-01T04:55:39.109Z,90.37
2019-06-01T04:56:39.112Z,90.48
2019-06-01T04:57:39.093Z,89.17
2019-06-01T04:58:39.083Z,89.67
2019-06-01T04:59:39.069Z,89.37
2019-06-01T05:00:39.065Z,89.17
2019-06-01T05:01:39.047Z,88.82
2019-06-01T05:02:39.040Z,89.17
2019-06-01T05:03:39.024Z,89.23
2019-06-01T05:04:39.025Z,88.62
2019-06-01T05:05:39.005Z,89.12
2019-06-01T05:06:39.013Z,88.52
2019-06-01T05:07:38.992Z,88.42
2019-06-01T05:08:38.971Z,88.02
2019-06-01T05:09:38.966Z,88.18
2019-06-01T05:10:38.949Z,88.22
2019-06-01T05:11:38.950Z,88.72
2019-06-01T05:12:38.934Z,88.52
2019-06-01T05:13:38.923Z,88.62
2019-06-01T05:14:38.918Z,89.23
2019-06-01T05:15:38.896Z,89.43
2019-06-01T05:16:38.904Z,89.12
2019-06-01T05:17:38.880Z,89.12
2019-06-01T05:18:38.870Z,89.18
2019-06-01T05:19:38.854Z,88.72
2019-06-01T05:20:38.844Z,88.92
2019-06-01T05:21:38.839Z,88.42
2019-06-01T05:22:38.837Z,88.72
2019-06-01T05:23:38.813Z,89.03
2019-06-01T05:24:38.805Z,88.78
2019-06-01T05:25:38.791Z,88.82
2019-06-01T05:26:38.781Z,88.48
2019-06-01T05:27:38.783Z,88.58
2019-06-01T05:28:38.777Z,88.58
2019-06-01T05:29:38.749Z,88.58
2019-06-01T05:30:38.736Z,88.68
2019-06-01T05:31:38.730Z,89.28
2019-06-01T05:32:38.716Z,89.04
2019-06-01T05:33:38.734Z,89.24
2019-06-01T05:34:38.698Z,88.34
2019-06-01T05:35:38.684Z,88.43
2019-06-01T05:36:38.683Z,88.03
2019-06-01T05:37:38.719Z,88.54
2019-06-01T05:38:38.652Z,88.39
2019-06-01T05:39:38.669Z,88.13
2019-06-01T05:40:38.649Z,87.63
2019-06-01T05:41:38.626Z,87.02
2019-06-01T05:42:38.614Z,86.83
2019-06-01T05:43:38.599Z,87.43
2019-06-01T05:44:38.586Z,88.13
2019-06-01T05:45:38.584Z,88.13
2019-06-01T05:46:38.569Z,87.73
2019-06-01T05:47:38.554Z,88.13
2019-06-01T05:48:38.548Z,87.93
2019-06-01T05:49:38.532Z,88.13
2019-06-01T05:50:38.528Z,88.23
2019-06-01T05:51:38.510Z,88.74
2019-06-01T05:52:38.505Z,88.54
2019-06-01T05:53:38.489Z,88.64
2019-06-01T05:54:38.483Z,88.70
2019-06-01T05:55:38.490Z,88.29
2019-06-01T05:56:38.463Z,87.99
2019-06-01T05:57:38.462Z,87.99
2019-06-01T05:58:38.439Z,87.49
2019-06-01T05:59:38.435Z,87.59
2019-06-01T06:00:38.532Z,87.65
2019-06-01T06:01:38.407Z,87.55
2019-06-01T06:02:38.392Z,87.55
2019-06-01T06:03:40.613Z,87.35
2019-06-01T06:04:38.374Z,87.15
2019-06-01T06:05:38.365Z,86.65
2019-06-01T06:06:38.356Z,86.40
2019-06-01T06:07:38.341Z,86.94
2019-06-01T06:08:38.328Z,86.40
2019-06-01T06:09:38.326Z,86.90
2019-06-01T06:10:38.311Z,86.90
2019-06-01T06:11:38.300Z,86.50
2019-06-01T06:12:38.295Z,86.40
2019-06-01T06:13:38.287Z,85.90
2019-06-01T06:14:38.260Z,86.40
2019-06-01T06:15:38.267Z,85.30
2019-06-01T06:16:38.252Z,85.94
2019-06-01T06:17:38.237Z,85.84
2019-06-01T06:18:38.219Z,86.44
2019-06-01T06:19:38.222Z,86.34
2019-06-01T06:20:38.201Z,86.34
2019-06-01T06:21:38.190Z,86.30
2019-06-01T06:22:41.138Z,86.50
2019-06-01T06:23:38.162Z,85.70
2019-06-01T06:24:38.158Z,85.66
2019-06-01T06:25:40.156Z,85.80
2019-06-01T06:26:38.131Z,85.70
2019-06-01T06:27:38.120Z,85.70
2019-06-01T06:28:38.117Z,85.56
2019-06-01T06:29:38.098Z,85.39
2019-06-01T06:30:38.086Z,85.30
2019-06-01T06:31:38.076Z,85.90
2019-06-01T06:32:38.066Z,86.50
2019-06-01T06:33:38.072Z,86.26
2019-06-01T06:34:38.050Z,85.39
2019-06-01T06:35:38.040Z,86.00
2019-06-01T06:36:38.021Z,85.90
2019-06-01T06:37:38.019Z,85.90
2019-06-01T06:38:38.020Z,85.70
2019-06-01T06:39:37.991Z,85.36
2019-06-01T06:40:37.984Z,85.70
2019-06-01T06:41:37.974Z,85.25
2019-06-01T06:42:37.965Z,85.75
2019-06-01T06:43:37.983Z,85.25
2019-06-01T06:44:37.938Z,84.25
2019-06-01T06:45:37.924Z,84.01
2019-06-01T06:46:37.922Z,84.31
2019-06-01T06:47:37.918Z,84.71
2019-06-01T06:48:37.909Z,84.81
2019-06-01T06:49:37.890Z,85.58
2019-06-01T06:50:37.878Z,84.67
2019-06-01T06:51:37.873Z,83.73
2019-06-01T06:52:37.855Z,83.93
2019-06-01T06:53:37.844Z,82.99
2019-06-01T06:54:37.847Z,83.09
2019-06-01T06:55:37.831Z,82.39
2019-06-01T06:56:37.816Z,81.09
2019-06-01T06:57:37.801Z,80.08
2019-06-01T06:58:37.789Z,80.65
2019-06-01T06:59:37.779Z,80.65
2019-06-01T07:00:37.796Z,80.74
2019-06-01T07:01:37.759Z,80.21
2019-06-01T07:02:37.745Z,79.41
2019-06-01T07:03:37.748Z,80.67
2019-06-01T07:04:37.724Z,81.01
2019-06-01T07:05:37.757Z,79.86
2019-06-01T07:06:37.706Z,79.06
2019-06-01T07:07:37.706Z,76.17
2019-06-01T07:08:37.685Z,76.06
2019-06-01T07:09:37.682Z,75.56
2019-06-01T07:10:37.670Z,76.06
2019-06-01T07:11:37.676Z,74.87
2019-06-01T07:12:37.643Z,75.67
2019-06-01T07:13:37.631Z,75.87
2019-06-01T07:14:37.641Z,75.76
2019-06-01T07:15:37.622Z,75.96
2019-06-01T07:16:37.604Z,76.23
2019-06-01T07:17:37.638Z,76.93
2019-06-01T07:18:37.579Z,77.39
2019-06-01T07:19:37.577Z,78.49
2019-06-01T07:20:37.551Z,75.29
2019-06-01T07:21:37.541Z,76.15
2019-06-01T07:22:37.537Z,76.76
2019-06-01T07:23:37.544Z,75.92
2019-06-01T07:24:37.508Z,75.62
2019-06-01T07:25:37.504Z,75.28
2019-06-01T07:26:37.492Z,73.55
2019-06-01T07:27:37.502Z,74.55
2019-06-01T07:28:37.512Z,75.31
2019-06-01T07:29:37.463Z,73.91
2019-06-01T07:30:49.678Z,73.42
2019-06-01T07:31:39.126Z,71.72
2019-06-01T07:32:37.431Z,69.92
2019-06-01T07:33:37.417Z,69.62
2019-06-01T07:34:41.759Z,68.73
2019-06-01T07:35:38.389Z,69.56
2019-06-01T07:36:37.383Z,70.16
2019-06-01T07:37:37.402Z,69.66
2019-06-01T07:38:37.363Z,69.96
2019-06-01T07:39:37.348Z,70.65
2019-06-01T07:40:37.340Z,70.03
2019-06-01T07:41:37.335Z,70.42
2019-06-01T07:42:37.315Z,72.28
2019-06-01T07:43:37.353Z,71.59
2019-06-01T07:44:37.298Z,72.28
2019-06-01T07:45:37.290Z,69.96
2019-06-01T07:46:37.286Z,70.06
2019-06-01T07:47:37.263Z,67.63
2019-06-01T07:48:37.276Z,67.73
2019-06-01T07:49:37.247Z,69.13
2019-06-01T07:50:37.236Z,68.70
2019-06-01T07:51:37.227Z,67.80
2019-06-01T07:52:37.222Z,66.97
2019-06-01T07:53:37.199Z,69.06
2019-06-01T07:54:37.228Z,69.23
2019-06-01T07:55:37.184Z,68.23
2019-06-01T07:56:37.176Z,64.95
2019-06-01T07:57:37.157Z,61.27
2019-06-01T07:58:37.152Z,61.07
2019-06-01T07:59:37.136Z,60.87
2019-06-01T08:00:37.140Z,62.16
2019-06-01T08:01:37.117Z,63.63
2019-06-01T08:02:37.108Z,60.14
2019-06-01T08:03:37.101Z,62.30
2019-06-01T08:04:52.767Z,59.03
2019-06-01T08:05:38.091Z,59.52
2019-06-01T08:06:43.861Z,60.31
2019-06-01T08:07:38.058Z,60.02
2019-06-01T08:08:37.068Z,58.62
2019-06-01T08:09:37.033Z,60.28
2019-06-01T08:10:37.028Z,60.39
2019-06-01T08:11:37.014Z,57.41
2019-06-01T08:12:37.011Z,55.72
2019-06-01T08:13:36.997Z,57.28
2019-06-01T08:14:36.988Z,58.27
2019-06-01T08:15:36.982Z,57.65
2019-06-01T08:16:36.985Z,57.82
2019-06-01T08:17:36.955Z,57.75
2019-06-01T08:18:36.944Z,57.32
2019-06-01T08:19:36.965Z,57.59
2019-06-01T08:20:36.920Z,56.70
2019-06-01T08:21:36.926Z,57.07
2019-06-01T08:22:36.903Z,57.61
2019-06-01T08:23:36.893Z,57.41
2019-06-01T08:24:36.881Z,57.51
2019-06-01T08:25:36.881Z,54.44
2019-06-01T08:26:36.863Z,54.22
2019-06-01T08:27:36.850Z,56.00
2019-06-01T08:28:36.837Z,56.00
2019-06-01T08:29:36.833Z,55.35
2019-06-01T08:30:36.815Z,55.05
2019-06-01T08:31:36.809Z,51.05
2019-06-01T08:32:36.794Z,50.53
2019-06-01T08:33:36.800Z,51.72
2019-06-01T08:34:36.817Z,51.13
2019-06-01T08:35:36.770Z,52.73
2019-06-01T08:36:36.847Z,54.84
2019-06-01T08:37:36.750Z,54.02
2019-06-01T08:38:36.740Z,54.69
2019-06-01T08:39:36.739Z,55.01
2019-06-01T08:40:36.770Z,55.24
2019-06-01T08:41:36.715Z,54.05
2019-06-01T08:42:36.701Z,54.27
2019-06-01T08:43:36.688Z,54.02
2019-06-01T08:44:36.680Z,52.31
2019-06-01T08:45:37.446Z,50.04
2019-06-01T08:46:36.653Z,49.82
2019-06-01T08:47:36.647Z,51.20
2019-06-01T08:48:36.633Z,50.78
2019-06-01T08:49:36.635Z,50.38
2019-06-01T08:50:36.624Z,50.76
2019-06-01T08:51:36.614Z,50.34
2019-06-01T08:52:36.610Z,48.56
2019-06-01T08:53:36.602Z,47.75
2019-06-01T08:54:36.595Z,48.66
2019-06-01T08:55:36.566Z,51.00
2019-06-01T08:56:36.556Z,48.51
2019-06-01T08:57:36.540Z,49.30
2019-06-01T08:58:36.532Z,45.75
2019-06-01T08:59:36.548Z,45.85
2019-06-01T09:00:36.516Z,44.57
2019-06-01T09:01:36.505Z,46.54
2019-06-01T09:02:36.506Z,46.42
2019-06-01T09:03:43.627Z,46.72
2019-06-01T09:04:37.488Z,44.55
2019-06-01T09:05:36.463Z,45.71
2019-06-01T09:06:36.459Z,45.90
2019-06-01T09:07:36.440Z,48.39
2019-06-01T09:08:36.434Z,48.00
2019-06-01T09:09:36.422Z,48.83
2019-06-01T09:10:36.420Z,46.17
2019-06-01T09:11:36.404Z,45.56
2019-06-01T09:12:36.419Z,46.25
2019-06-01T09:13:36.377Z,45.04
2019-06-01T09:14:36.371Z,46.99
2019-06-01T09:15:36.362Z,46.30
2019-06-01T09:16:36.346Z,44.33
2019-06-01T09:17:36.341Z,45.95
2019-06-01T09:18:36.339Z,47.72
2019-06-01T09:19:36.322Z,45.78
2019-06-01T09:20:38.792Z,46.74
2019-06-01T09:21:36.305Z,47.72
2019-06-01T09:22:36.288Z,49.08
2019-06-01T09:23:37.398Z,48.79
2019-06-01T09:24:36.359Z,48.17
2019-06-01T09:25:36.257Z,47.68
2019-06-01T09:26:36.254Z,45.53
2019-06-01T09:27:36.297Z,47.65
2019-06-01T09:28:36.349Z,48.34
2019-06-01T09:29:36.304Z,48.51
2019-06-01T09:30:36.351Z,48.29
2019-06-01T09:31:36.750Z,48.07
2019-06-01T09:32:36.534Z,47.85
2019-06-01T09:33:36.866Z,47.73
2019-06-01T09:34:36.489Z,47.91
2019-06-01T09:35:52.634Z,44.48
2019-06-01T09:36:37.143Z,46.67
2019-06-01T09:37:36.795Z,46.18
2019-06-01T09:38:36.171Z,46.84
2019-06-01T09:39:37.304Z,44.66
2019-06-01T09:40:37.198Z,45.13
2019-06-01T09:41:36.629Z,44.81
2019-06-01T09:42:37.463Z,44.89
2019-06-01T09:43:37.177Z,42.43
2019-06-01T09:44:37.305Z,42.51
2019-06-01T09:45:36.404Z,44.40
2019-06-01T09:46:37.297Z,42.45
2019-06-01T09:47:36.039Z,43.85
2019-06-01T09:48:36.027Z,43.18
2019-06-01T09:49:36.020Z,44.56
2019-06-01T09:50:36.008Z,44.56
2019-06-01T09:51:36.005Z,44.24
2019-06-01T09:52:35.989Z,44.24
2019-06-01T09:53:36.225Z,45.57
2019-06-01T09:54:36.404Z,44.30
2019-06-01T09:55:36.469Z,44.27
2019-06-01T09:56:37.819Z,44.74
2019-06-01T09:57:36.133Z,44.06
2019-06-01T09:58:36.863Z,43.49
2019-06-01T09:59:36.068Z,44.20
2019-06-01T10:00:41.142Z,44.22
2019-06-01T10:01:36.896Z,44.32
2019-06-01T10:02:36.242Z,44.10
2019-06-01T10:03:36.513Z,43.90
2019-06-01T10:04:36.543Z,42.35
2019-06-01T10:05:36.508Z,43.33
2019-06-01T10:06:36.696Z,42.85
2019-06-01T10:07:37.014Z,44.10
2019-06-01T10:08:36.151Z,42.92
2019-06-01T10:09:35.845Z,44.10
2019-06-01T10:10:36.027Z,42.68
2019-06-01T10:11:36.052Z,42.63
2019-06-01T10:12:36.091Z,43.63
2019-06-01T10:13:36.372Z,42.71
2019-06-01T10:14:36.210Z,43.00
2019-06-01T10:15:36.474Z,42.27
2019-06-01T10:16:36.805Z,41.19
2019-06-01T10:17:37.068Z,40.98
2019-06-01T10:18:36.929Z,41.84
2019-06-01T10:19:36.721Z,41.82
2019-06-01T10:20:36.943Z,40.60
2019-06-01T10:21:36.159Z,40.21
2019-06-01T10:22:37.062Z,39.41
2019-06-01T10:23:36.576Z,38.61
2019-06-01T10:24:35.672Z,39.47
2019-06-01T10:25:36.493Z,37.81
2019-06-01T10:26:35.810Z,36.65
2019-06-01T10:27:36.707Z,36.96
2019-06-01T10:28:35.814Z,37.85
2019-06-01T10:29:36.757Z,36.94
2019-06-01T10:30:35.830Z,38.90
2019-06-01T10:31:39.682Z,37.43
2019-06-01T10:32:37.884Z,36.83
2019-06-01T10:33:37.303Z,37.32
2019-06-01T10:34:35.721Z,38.30
2019-06-01T10:35:36.857Z,36.31
2019-06-01T10:36:35.976Z,36.02
2019-06-01T10:37:35.545Z,38.01
2019-06-01T10:38:35.535Z,35.77
2019-06-01T10:39:35.533Z,37.67
2019-06-01T10:40:35.518Z,38.80
2019-06-01T10:41:35.500Z,40.39
2019-06-01T10:42:36.119Z,40.39
2019-06-01T10:43:35.670Z,38.82
2019-06-01T10:44:41.180Z,38.84
2019-06-01T10:45:37.710Z,40.27
2019-06-01T10:46:35.970Z,41.27
2019-06-01T10:47:35.907Z,40.94
2019-06-01T10:48:36.106Z,41.27
2019-06-01T10:49:35.943Z,39.69
2019-06-01T10:50:36.676Z,39.96
2019-06-01T10:51:36.221Z,39.04
2019-06-01T10:52:36.249Z,38.84
2019-06-01T10:53:36.352Z,37.45
2019-06-01T10:54:36.152Z,37.96
2019-06-01T10:55:36.189Z,37.75
2019-06-01T10:56:36.273Z,36.85
2019-06-01T10:57:36.615Z,35.17
2019-06-01T10:58:52.418Z,35.45
2019-06-01T10:59:36.355Z,37.19
2019-06-01T11:00:43.259Z,36.21
2019-06-01T11:01:37.448Z,36.00
2019-06-01T11:02:36.596Z,35.69
2019-06-01T11:03:36.607Z,35.38
2019-06-01T11:04:36.671Z,35.36
2019-06-01T11:05:35.273Z,35.55
2019-06-01T11:06:40.943Z,34.24
2019-06-01T11:07:36.778Z,35.64
2019-06-01T11:08:35.848Z,35.74
2019-06-01T11:09:35.235Z,37.19
2019-06-01T11:10:35.229Z,35.82
2019-06-01T11:11:35.213Z,35.92
2019-06-01T11:12:35.210Z,34.36
2019-06-01T11:13:35.197Z,35.33
2019-06-01T11:14:35.181Z,35.16
2019-06-01T11:15:35.173Z,34.75
2019-06-01T11:16:35.259Z,33.85
2019-06-01T11:17:35.154Z,34.12
2019-06-01T11:18:35.333Z,33.25
2019-06-01T11:19:35.316Z,33.62
2019-06-01T11:20:35.255Z,33.62
2019-06-01T11:21:35.498Z,33.23
2019-06-01T11:22:35.472Z,33.14
2019-06-01T11:23:35.546Z,34.50
2019-06-01T11:24:35.370Z,33.12
2019-06-01T11:25:35.621Z,34.48
2019-06-01T11:26:35.560Z,32.05
2019-06-01T11:27:35.634Z,33.02
2019-06-01T11:28:36.215Z,31.76
2019-06-01T11:29:40.085Z,32.63
2019-06-01T11:30:36.035Z,33.41
2019-06-01T11:31:35.996Z,33.70
2019-06-01T11:32:35.921Z,33.59
2019-06-01T11:33:36.033Z,34.06
2019-06-01T11:34:36.438Z,32.31
2019-06-01T11:35:35.058Z,31.06
2019-06-01T11:36:36.178Z,31.34
2019-06-01T11:37:36.081Z,31.41
2019-06-01T11:38:36.205Z,31.30
2019-06-01T11:39:36.297Z,32.47
2019-06-01T11:40:36.404Z,31.88
2019-06-01T11:41:34.929Z,33.54
2019-06-01T11:42:35.109Z,31.38
2019-06-01T11:43:34.911Z,31.30
2019-06-01T11:44:34.907Z,31.11
2019-06-01T11:45:34.954Z,31.29
2019-06-01T11:46:34.886Z,32.26
2019-06-01T11:47:34.872Z,30.98
2019-06-01T11:48:35.187Z,30.21
2019-06-01T11:49:34.859Z,31.21
2019-06-01T11:50:35.207Z,32.13
2019-06-01T11:51:34.950Z,33.25
2019-06-01T11:52:34.994Z,31.46
2019-06-01T11:53:35.173Z,31.06
2019-06-01T11:54:35.100Z,31.27
2019-06-01T11:55:35.154Z,31.25
2019-06-01T11:56:35.172Z,33.29
2019-06-01T11:57:35.242Z,31.64
2019-06-01T11:58:35.136Z,31.06
2019-06-01T11:59:35.282Z,31.85
2019-06-01T12:00:35.397Z,32.23
2019-06-01T12:01:35.614Z,32.99
2019-06-01T12:02:35.527Z,33.09
2019-06-01T12:03:35.522Z,32.92
2019-06-01T12:04:35.732Z,33.26
2019-06-01T12:05:35.794Z,33.58
2019-06-01T12:06:35.678Z,31.99
2019-06-01T12:07:35.672Z,32.16
2019-06-01T12:08:35.890Z,32.05
2019-06-01T12:09:35.739Z,31.35
2019-06-01T12:10:34.663Z,30.31
2019-06-01T12:11:35.720Z,33.26
2019-06-01T12:12:35.947Z,33.64
2019-06-01T12:13:35.921Z,32.63
2019-06-01T12:14:36.194Z,31.85
2019-06-01T12:15:34.616Z,31.17
2019-06-01T12:16:34.611Z,32.62
2019-06-01T12:17:34.601Z,31.71
2019-06-01T12:18:34.597Z,30.25
2019-06-01T12:19:34.595Z,31.13
2019-06-01T12:20:34.565Z,31.11
2019-06-01T12:21:34.563Z,30.32
2019-06-01T12:22:34.555Z,29.44
2019-06-01T12:23:34.544Z,29.72
2019-06-01T12:24:34.530Z,29.91
2019-06-01T12:25:34.525Z,28.57
2019-06-01T12:26:34.512Z,29.36
2019-06-01T12:27:34.501Z,28.97
2019-06-01T12:28:34.520Z,28.68
2019-06-01T12:29:34.488Z,29.05
2019-06-01T12:30:34.478Z,29.64
2019-06-01T12:31:34.462Z,29.82
2019-06-01T12:32:34.454Z,29.91
2019-06-01T12:33:34.448Z,29.32
2019-06-01T12:34:34.456Z,28.44
2019-06-01T12:35:34.431Z,29.02
2019-06-01T12:36:34.420Z,28.33
2019-06-01T12:37:52.391Z,28.83
2019-06-01T12:38:35.402Z,28.54
2019-06-01T12:39:34.402Z,29.50
2019-06-01T12:40:34.407Z,29.98
2019-06-01T12:41:34.392Z,28.51
2019-06-01T12:42:34.365Z,29.01
2019-06-01T12:43:34.359Z,28.70
2019-06-01T12:44:34.374Z,28.51
2019-06-01T12:45:34.336Z,27.25
2019-06-01T12:46:34.329Z,27.57
2019-06-01T12:47:34.323Z,28.25
2019-06-01T12:48:34.312Z,28.44
2019-06-01T12:49:34.318Z,27.78
2019-06-01T12:50:34.334Z,28.44
2019-06-01T12:51:34.290Z,29.04
2019-06-01T12:52:34.302Z,28.11